Time;durP1;ratioP1;P1;durP2;ratioP2;P2;SDS_P1;SDS_P2;PMS_P1;PMS_P2;Temp;Humidity;BMP_temperature;BMP_pressure;BME280_temperature;BME280_humidity;BME280_pressure;Samples;Min_cycle;Max_cycle;Signal;HPM_P1;HPM_P2
2021/11/24 00:00:43;;;;;;;7.15;4.43;;;23.60;49.20;;;;;;6150742;28;80425;-64
2021/11/24 00:03:44;;;;;;;7.60;4.55;;;23.60;49.20;;;;;;6152369;28;82187;-64
2021/11/24 00:06:44;;;;;;;5.47;4.22;;;23.60;49.20;;;;;;6153349;28;81352;-64
2021/11/24 00:09:45;;;;;;;6.50;4.43;;;23.60;49.10;;;;;;6142967;28;80674;-64
2021/11/24 00:12:45;;;;;;;5.90;3.80;;;23.60;48.90;;;;;;6153628;28;81249;-64
2021/11/24 00:15:46;;;;;;;6.45;4.75;;;23.60;49.60;;;;;;6148849;28;83353;-63
2021/11/24 00:18:46;;;;;;;6.70;4.80;;;23.60;49.40;;;;;;6152641;28;81767;-63
2021/11/24 00:21:47;;;;;;;7.32;4.55;;;23.60;49.40;;;;;;6144699;28;82577;-63
2021/11/24 00:24:47;;;;;;;7.35;4.55;;;23.60;49.10;;;;;;6149846;28;80594;-63
2021/11/24 00:27:48;;;;;;;7.65;4.97;;;23.60;48.90;;;;;;6151962;28;80662;-63
2021/11/24 00:30:48;;;;;;;6.05;3.92;;;23.60;49.20;;;;;;6152502;28;80343;-63
2021/11/24 00:33:49;;;;;;;9.52;4.95;;;23.60;49.90;;;;;;6152645;28;80297;-63
2021/11/24 00:36:49;;;;;;;8.27;4.55;;;23.60;48.90;;;;;;6149765;28;80867;-64
2021/11/24 00:39:50;;;;;;;6.88;4.35;;;23.60;48.90;;;;;;6157694;28;80560;-64
2021/11/24 00:42:50;;;;;;;7.32;4.15;;;23.60;48.80;;;;;;6155897;28;81402;-64
2021/11/24 00:45:51;;;;;;;6.70;4.65;;;23.60;49.10;;;;;;6153069;28;83392;-64
2021/11/24 00:48:52;;;;;;;7.18;5.05;;;23.60;49.00;;;;;;6154567;28;80492;-64
2021/11/24 00:51:52;;;;;;;7.32;4.47;;;23.60;49.00;;;;;;6148736;28;80325;-64
2021/11/24 00:54:53;;;;;;;7.50;4.43;;;23.60;48.70;;;;;;6153734;28;80514;-65
2021/11/24 00:57:55;;;;;;;7.32;4.47;;;23.60;49.30;;;;;;6147516;28;82214;-65
2021/11/24 01:00:56;;;;;;;8.13;4.15;;;23.60;49.30;;;;;;6148765;28;81179;-65
2021/11/24 01:03:56;;;;;;;7.03;4.03;;;23.60;49.40;;;;;;6148454;28;81582;-64
2021/11/24 01:06:57;;;;;;;7.43;4.20;;;23.60;49.00;;;;;;6151895;28;80891;-64
2021/11/24 01:09:57;;;;;;;7.45;4.68;;;23.60;48.80;;;;;;6155575;28;81493;-64
2021/11/24 01:12:58;;;;;;;6.45;3.72;;;23.60;48.80;;;;;;6150313;28;80588;-64
2021/11/24 01:15:58;;;;;;;7.47;4.70;;;23.60;48.70;;;;;;6155960;28;82120;-64
2021/11/24 01:18:59;;;;;;;6.50;4.05;;;23.60;48.70;;;;;;6151395;28;80294;-64
2021/11/24 01:21:59;;;;;;;5.40;3.95;;;23.60;49.10;;;;;;6154592;28;81483;-64
2021/11/24 01:25:00;;;;;;;6.60;4.45;;;23.60;49.20;;;;;;6151115;28;81732;-63
2021/11/24 01:28:00;;;;;;;5.38;3.70;;;23.60;48.50;;;;;;6150441;28;81690;-63
2021/11/24 01:31:01;;;;;;;5.25;3.92;;;23.50;48.50;;;;;;6145969;28;80623;-64
2021/11/24 01:34:01;;;;;;;6.70;3.95;;;23.50;48.60;;;;;;6145621;28;80298;-64
2021/11/24 01:37:02;;;;;;;6.40;4.35;;;23.50;49.00;;;;;;6157004;28;80683;-63
2021/11/24 01:40:02;;;;;;;6.78;3.92;;;23.50;48.60;;;;;;6153048;28;81196;-63
2021/11/24 01:43:05;;;;;;;5.20;3.75;;;23.50;48.60;;;;;;6149698;28;80512;-64
2021/11/24 01:46:06;;;;;;;5.20;3.58;;;23.50;48.60;;;;;;6155161;28;80994;-64
2021/11/24 01:49:06;;;;;;;5.93;4.10;;;23.50;48.50;;;;;;6145484;28;81517;-64
2021/11/24 01:52:07;;;;;;;6.22;3.83;;;23.50;49.10;;;;;;6146028;28;80746;-63
2021/11/24 01:55:08;;;;;;;6.35;3.38;;;23.50;48.90;;;;;;6156699;28;80288;-63
2021/11/24 01:58:08;;;;;;;5.90;3.75;;;23.50;49.20;;;;;;6149284;28;80661;-63
2021/11/24 02:01:09;;;;;;;6.57;3.88;;;23.50;48.90;;;;;;6148544;28;81911;-64
2021/11/24 02:04:09;;;;;;;5.55;3.47;;;23.50;48.80;;;;;;6139261;28;83252;-64
2021/11/24 02:07:10;;;;;;;6.03;3.88;;;23.50;49.40;;;;;;6153567;28;80597;-64
2021/11/24 02:10:10;;;;;;;6.05;3.22;;;23.50;48.60;;;;;;6141967;28;80596;-64
2021/11/24 02:13:11;;;;;;;7.22;3.83;;;23.50;48.70;;;;;;6153573;28;81742;-64
2021/11/24 02:16:11;;;;;;;3.97;2.92;;;23.50;48.80;;;;;;6149829;28;83165;-64
2021/11/24 02:19:12;;;;;;;5.97;3.45;;;23.50;48.90;;;;;;6149533;28;82179;-64
2021/11/24 02:22:12;;;;;;;5.57;3.65;;;23.50;49.40;;;;;;6144600;28;80484;-63
2021/11/24 02:25:13;;;;;;;7.85;3.50;;;23.40;49.10;;;;;;6142650;28;80471;-64
2021/11/24 02:28:13;;;;;;;6.55;3.50;;;23.50;49.10;;;;;;6141776;28;80342;-65
2021/11/24 02:31:14;;;;;;;6.78;3.90;;;23.40;49.00;;;;;;6149268;28;80925;-64
2021/11/24 02:34:14;;;;;;;5.20;3.30;;;23.40;48.80;;;;;;6142611;28;87079;-64
2021/11/24 02:37:15;;;;;;;5.70;3.55;;;23.40;48.70;;;;;;6151336;28;80615;-64
2021/11/24 02:40:16;;;;;;;4.20;3.05;;;23.50;48.80;;;;;;6145562;28;80371;-64
2021/11/24 02:43:16;;;;;;;4.22;3.03;;;23.40;48.60;;;;;;6142940;28;83346;-64
2021/11/24 02:46:17;;;;;;;5.88;3.03;;;23.50;48.90;;;;;;6148827;28;81958;-65
2021/11/24 02:49:17;;;;;;;5.38;3.47;;;23.50;48.70;;;;;;6156798;28;80463;-65
2021/11/24 02:52:18;;;;;;;4.60;2.80;;;23.40;48.60;;;;;;6140985;28;80348;-64
2021/11/24 02:55:18;;;;;;;5.00;3.08;;;23.40;48.20;;;;;;6142870;28;80417;-65
2021/11/24 02:58:19;;;;;;;6.55;3.33;;;23.40;48.60;;;;;;6144330;28;81690;-65
2021/11/24 03:01:19;;;;;;;4.78;3.08;;;23.40;48.50;;;;;;6149116;28;81421;-65
2021/11/24 03:04:20;;;;;;;4.05;3.08;;;23.40;49.20;;;;;;6147005;28;82336;-65
2021/11/24 03:07:20;;;;;;;4.53;2.85;;;23.40;48.50;;;;;;6145384;28;80329;-64
2021/11/24 03:10:21;;;;;;;4.43;2.90;;;23.40;48.40;;;;;;6143019;28;80617;-63
2021/11/24 03:13:21;;;;;;;4.95;2.60;;;23.40;48.40;;;;;;6147729;28;80353;-63
2021/11/24 03:16:22;;;;;;;3.55;2.50;;;23.40;48.20;;;;;;6140827;28;81747;-64
2021/11/24 03:19:23;;;;;;;5.63;3.05;;;23.40;47.90;;;;;;6153330;28;80948;-63
2021/11/24 03:22:23;;;;;;;4.38;3.10;;;23.50;48.00;;;;;;6155017;28;80694;-64
2021/11/24 03:25:24;;;;;;;4.72;2.97;;;23.50;47.50;;;;;;6155518;28;80280;-64
2021/11/24 03:28:24;;;;;;;3.95;3.08;;;23.50;47.20;;;;;;6144315;28;80472;-63
2021/11/24 03:31:25;;;;;;;4.38;2.50;;;23.50;47.00;;;;;;6147020;28;87138;-63
2021/11/24 03:34:25;;;;;;;4.47;2.70;;;23.60;46.90;;;;;;6141980;28;81823;-63
2021/11/24 03:37:26;;;;;;;5.35;2.80;;;23.60;46.80;;;;;;6149506;28;81332;-63
2021/11/24 03:40:26;;;;;;;3.13;2.47;;;23.60;46.90;;;;;;6142279;28;80400;-63
2021/11/24 03:43:27;;;;;;;4.40;2.92;;;23.60;46.80;;;;;;6142655;28;80977;-63
2021/11/24 03:46:27;;;;;;;2.95;2.47;;;23.70;46.70;;;;;;6154124;28;81656;-63
2021/11/24 03:49:28;;;;;;;4.82;2.33;;;23.70;46.80;;;;;;6142210;28;80514;-64
2021/11/24 03:52:28;;;;;;;3.92;2.85;;;23.70;46.70;;;;;;6142253;28;80648;-63
2021/11/24 03:55:29;;;;;;;4.35;2.58;;;23.70;46.70;;;;;;6157377;28;83513;-62
2021/11/24 03:58:29;;;;;;;5.03;2.80;;;23.70;46.70;;;;;;6158351;28;80561;-62
2021/11/24 04:01:30;;;;;;;4.72;2.97;;;23.70;46.70;;;;;;6147671;28;81445;-63
2021/11/24 04:04:30;;;;;;;4.28;2.83;;;23.80;46.60;;;;;;6146711;28;80226;-63
2021/11/24 04:07:31;;;;;;;4.45;3.00;;;23.80;46.60;;;;;;6138816;28;80754;-62
2021/11/24 04:10:31;;;;;;;4.45;2.72;;;23.80;46.50;;;;;;6137664;28;81776;-62
2021/11/24 04:13:32;;;;;;;4.43;2.50;;;23.80;46.40;;;;;;6146094;28;81615;-62
2021/11/24 04:16:32;;;;;;;3.85;2.75;;;23.80;46.30;;;;;;6150142;28;80773;-62
2021/11/24 04:19:33;;;;;;;3.78;2.60;;;23.80;46.30;;;;;;6151305;28;80452;-62
2021/11/24 04:22:34;;;;;;;6.00;2.67;;;23.80;46.40;;;;;;6142625;28;80418;-62
2021/11/24 04:25:34;;;;;;;2.78;2.40;;;23.90;46.40;;;;;;6147365;28;80304;-62
2021/11/24 04:28:35;;;;;;;2.72;2.28;;;23.90;46.30;;;;;;6151212;28;80440;-62
2021/11/24 04:31:35;;;;;;;3.97;2.80;;;23.90;46.30;;;;;;6144946;28;81457;-63
2021/11/24 04:34:36;;;;;;;4.15;3.08;;;23.90;46.30;;;;;;6148357;28;80652;-63
2021/11/24 04:37:37;;;;;;;3.90;2.40;;;23.90;46.40;;;;;;6142789;28;80040;-63
2021/11/24 04:40:37;;;;;;;4.30;2.58;;;23.90;46.20;;;;;;6146348;28;80676;-63
2021/11/24 04:43:46;;;;;;;4.20;2.55;;;23.90;46.00;;;;;;6143544;28;80694;-63
2021/11/24 04:46:46;;;;;;;3.40;2.58;;;23.90;46.10;;;;;;6139734;28;81939;-63
2021/11/24 04:49:47;;;;;;;4.70;2.97;;;23.90;46.00;;;;;;6152312;28;80374;-62
2021/11/24 04:52:47;;;;;;;4.18;2.47;;;24.00;46.10;;;;;;6149094;28;80371;-63
2021/11/24 04:55:48;;;;;;;3.20;2.55;;;23.90;45.90;;;;;;6142355;28;82319;-64
2021/11/24 05:01:49;;;;;;;3.55;2.30;;;24.00;46.10;;;;;;6156653;28;81180;-64
2021/11/24 05:04:49;;;;;;;3.03;2.10;;;24.00;46.30;;;;;;6157352;28;80616;-63
2021/11/24 05:07:50;;;;;;;5.20;2.10;;;24.00;46.20;;;;;;6148987;28;82167;-63
2021/11/24 05:10:52;;;;;;;3.38;2.40;;;24.00;46.30;;;;;;6163162;28;80372;-63
2021/11/24 05:13:55;;;;;;;2.75;2.10;;;24.00;46.30;;;;;;6149323;28;80467;-62
2021/11/24 05:16:58;;;;;;;2.78;2.10;;;24.00;46.50;;;;;;6167541;28;80564;-63
2021/11/24 05:20:00;;;;;;;3.25;2.22;;;24.00;46.50;;;;;;6139927;28;80799;-66
2021/11/24 05:23:03;;;;;;;4.95;2.30;;;24.10;46.60;;;;;;6150789;28;80743;-66
2021/11/24 05:26:04;;;;;;;5.28;2.38;;;24.00;47.10;;;;;;6148857;28;80180;-64
2021/11/24 05:29:05;;;;;;;4.60;2.75;;;24.10;47.20;;;;;;6152656;28;82663;-62
2021/11/24 05:32:05;;;;;;;5.05;2.88;;;24.10;46.90;;;;;;6142298;28;80762;-63
2021/11/24 05:35:06;;;;;;;3.45;2.67;;;24.10;47.20;;;;;;6135684;28;81671;-62
2021/11/24 05:38:06;;;;;;;3.75;2.55;;;24.10;47.20;;;;;;6137291;28;82608;-64
2021/11/24 05:41:07;;;;;;;3.95;2.33;;;24.10;47.10;;;;;;6143049;28;80765;-64
2021/11/24 05:44:25;;;;;;;4.05;2.47;;;24.10;47.40;;;;;;6146586;28;80468;-64
2021/11/24 05:50:44;;;;;;;4.22;3.03;;;24.10;47.10;;;;;;6143188;28;81746;-63
2021/11/24 05:53:45;;;;;;;4.18;2.63;;;24.00;47.30;;;;;;6158275;28;81174;-67
2021/11/24 05:56:46;;;;;;;5.80;2.63;;;24.10;47.20;;;;;;6153958;28;80891;-65
2021/11/24 05:59:46;;;;;;;4.38;2.70;;;24.00;47.40;;;;;;6149797;28;80844;-65
2021/11/24 06:02:47;;;;;;;6.30;2.60;;;24.00;47.30;;;;;;6143785;28;80468;-66
2021/11/24 06:05:47;;;;;;;8.88;3.50;;;24.00;47.10;;;;;;6140876;28;80658;-65
2021/11/24 06:08:48;;;;;;;3.28;2.58;;;24.00;47.20;;;;;;6144683;28;80413;-62
2021/11/24 06:11:48;;;;;;;5.97;2.65;;;24.00;46.90;;;;;;6148574;28;81382;-63
2021/11/24 06:14:49;;;;;;;8.75;4.85;;;23.90;47.60;;;;;;6155619;28;81893;-62
2021/11/24 06:17:49;;;;;;;18.75;9.00;;;24.00;47.20;;;;;;6150495;28;80011;-62
2021/11/24 06:20:50;;;;;;;23.77;11.98;;;23.90;47.90;;;;;;6149814;28;80802;-62
2021/11/24 06:23:50;;;;;;;30.63;17.70;;;24.00;48.20;;;;;;6142064;28;83212;-63
2021/11/24 06:26:51;;;;;;;35.15;19.20;;;24.00;48.30;;;;;;6145236;28;83731;-65
2021/11/24 06:29:51;;;;;;;45.90;21.92;;;24.00;47.90;;;;;;6144681;28;84304;-64
2021/11/24 06:32:53;;;;;;;35.88;19.65;;;23.90;47.70;;;;;;6147744;28;83365;-64
2021/11/24 06:35:53;;;;;;;31.30;17.85;;;23.90;47.80;;;;;;6141001;28;82915;-62
2021/11/24 06:38:54;;;;;;;34.28;16.88;;;23.90;48.00;;;;;;6143097;28;84164;-63
2021/11/24 06:41:54;;;;;;;29.63;16.38;;;23.90;48.20;;;;;;6151375;28;83227;-63
2021/11/24 06:44:55;;;;;;;32.05;16.50;;;23.90;48.20;;;;;;6153354;28;83305;-65
2021/11/24 06:47:55;;;;;;;23.38;13.02;;;23.80;48.20;;;;;;6147477;28;83550;-63
2021/11/24 06:50:56;;;;;;;24.13;15.13;;;23.80;48.10;;;;;;6149779;28;83080;-64
2021/11/24 06:53:56;;;;;;;27.73;14.07;;;23.90;48.20;;;;;;6146992;28;83067;-64
2021/11/24 06:56:57;;;;;;;25.33;13.25;;;23.90;47.80;;;;;;6146516;28;83232;-65
2021/11/24 06:59:57;;;;;;;25.08;13.40;;;23.90;47.50;;;;;;6149108;28;83568;-64
2021/11/24 07:02:58;;;;;;;28.52;13.90;;;23.90;47.20;;;;;;6149254;28;83071;-63
2021/11/24 07:05:58;;;;;;;23.13;13.05;;;23.90;47.30;;;;;;6148401;28;84967;-62
2021/11/24 07:08:59;;;;;;;21.00;11.88;;;23.90;46.70;;;;;;6152040;28;83607;-63
2021/11/24 07:12:00;;;;;;;22.48;12.77;;;23.90;46.80;;;;;;6150025;28;83488;-63
2021/11/24 07:15:00;;;;;;;25.67;12.00;;;23.90;46.60;;;;;;6147727;28;83333;-63
2021/11/24 07:18:01;;;;;;;18.95;11.68;;;23.90;46.60;;;;;;6148813;28;83545;-62
2021/11/24 07:21:01;;;;;;;20.02;10.85;;;23.90;46.30;;;;;;6152526;28;84212;-63
2021/11/24 07:24:02;;;;;;;23.20;11.77;;;23.90;46.00;;;;;;6147685;28;84218;-63
2021/11/24 07:27:02;;;;;;;17.13;10.15;;;23.90;46.10;;;;;;6151448;28;85054;-63
2021/11/24 07:30:03;;;;;;;19.02;10.15;;;23.90;45.90;;;;;;6143326;28;83590;-63
2021/11/24 07:33:03;;;;;;;18.38;9.65;;;23.90;45.40;;;;;;6147217;28;83737;-62
2021/11/24 07:36:04;;;;;;;16.77;9.18;;;23.90;45.20;;;;;;6147238;28;82950;-64
2021/11/24 07:39:04;;;;;;;16.38;8.80;;;23.90;44.90;;;;;;6151079;28;80173;-63
2021/11/24 07:42:05;;;;;;;13.50;7.75;;;23.80;44.60;;;;;;6152108;28;81608;-63
2021/11/24 07:45:06;;;;;;;12.05;7.50;;;23.70;44.90;;;;;;6152945;28;80372;-63
2021/11/24 07:48:07;;;;;;;10.82;6.13;;;23.60;46.20;;;;;;6152209;28;80427;-63
2021/11/24 07:51:09;;;;;;;11.73;6.35;;;23.50;47.30;;;;;;6146565;28;81272;-61
2021/11/24 07:54:09;;;;;;;8.15;5.15;;;23.50;47.80;;;;;;6150977;28;80483;-63
2021/11/24 07:57:10;;;;;;;8.77;4.90;;;23.50;48.60;;;;;;6151358;28;80619;-65
2021/11/24 08:00:11;;;;;;;7.60;4.25;;;23.40;48.90;;;;;;6155616;28;81750;-64
2021/11/24 08:03:14;;;;;;;12.25;4.80;;;23.40;49.30;;;;;;6148104;28;80819;-64
2021/11/24 08:06:15;;;;;;;7.78;3.88;;;23.50;50.00;;;;;;6150304;28;80571;-66
2021/11/24 08:09:15;;;;;;;6.20;4.15;;;23.50;50.40;;;;;;6151944;28;80678;-65
2021/11/24 08:12:16;;;;;;;6.75;4.35;;;23.50;50.30;;;;;;6152600;28;80495;-67
2021/11/24 08:15:16;;;;;;;7.13;3.83;;;23.50;50.80;;;;;;6148550;28;81238;-61
2021/11/24 08:18:17;;;;;;;6.95;3.63;;;23.50;50.90;;;;;;6153517;28;81338;-61
2021/11/24 08:21:17;;;;;;;4.75;3.20;;;23.50;50.80;;;;;;6149579;28;80910;-62
2021/11/24 08:24:18;;;;;;;4.90;3.15;;;23.40;51.20;;;;;;6154206;28;80834;-61
2021/11/24 08:27:18;;;;;;;3.50;2.63;;;23.40;51.40;;;;;;6147687;28;81730;-62
2021/11/24 08:30:20;;;;;;;4.30;3.22;;;23.30;51.40;;;;;;6152318;28;80779;-62
2021/11/24 08:33:20;;;;;;;3.75;2.42;;;23.30;51.40;;;;;;6154444;28;81175;-61
2021/11/24 08:36:21;;;;;;;4.00;2.55;;;23.20;50.90;;;;;;6153033;28;80573;-62
2021/11/24 08:39:24;;;;;;;3.75;2.65;;;23.10;50.60;;;;;;6150625;28;80711;-62
2021/11/24 08:42:26;;;;;;;5.65;2.63;;;23.10;50.30;;;;;;6150020;28;80561;-62
2021/11/24 08:45:26;;;;;;;4.93;3.30;;;23.20;50.00;;;;;;6151010;28;80335;-62
2021/11/24 08:48:27;;;;;;;6.55;3.40;;;23.30;48.30;;;;;;6151308;28;80454;-62
2021/11/24 08:51:27;;;;;;;8.93;3.70;;;23.30;47.60;;;;;;6149687;28;81491;-62
2021/11/24 08:54:28;;;;;;;4.65;2.88;;;23.30;46.20;;;;;;6150144;28;80782;-62
2021/11/24 08:57:28;;;;;;;5.60;2.78;;;23.30;46.90;;;;;;6153004;28;80990;-62
2021/11/24 09:00:29;;;;;;;4.72;3.20;;;23.40;47.50;;;;;;6151747;28;80456;-62
2021/11/24 09:03:30;;;;;;;7.43;3.35;;;23.40;46.80;;;;;;6146231;28;80586;-62
2021/11/24 09:06:30;;;;;;;3.90;2.80;;;23.40;46.60;;;;;;6152580;28;80438;-62
2021/11/24 09:09:31;;;;;;;3.50;2.28;;;23.40;46.50;;;;;;6150534;28;81695;-62
2021/11/24 09:12:31;;;;;;;3.97;2.50;;;23.50;47.00;;;;;;6143330;28;82081;-61
2021/11/24 09:15:32;;;;;;;6.18;2.47;;;23.50;47.20;;;;;;6144699;28;80870;-61
2021/11/24 09:18:32;;;;;;;4.68;2.90;;;23.50;47.30;;;;;;6149522;28;79965;-60
2021/11/24 09:21:33;;;;;;;4.75;2.63;;;23.50;47.50;;;;;;6149014;28;81929;-61
2021/11/24 09:24:33;;;;;;;5.97;2.92;;;23.50;47.60;;;;;;6147971;28;80645;-60
2021/11/24 09:27:44;;;;;;;7.13;3.42;;;23.50;47.10;;;;;;6154043;28;80280;-62
2021/11/24 09:30:45;;;;;;;6.32;2.70;;;23.50;47.50;;;;;;6153123;28;80756;-62
2021/11/24 09:33:45;;;;;;;4.80;2.90;;;23.50;47.50;;;;;;6152274;28;81775;-64
2021/11/24 09:36:46;;;;;;;6.88;2.97;;;23.50;47.40;;;;;;6149090;28;80448;-66
2021/11/24 09:39:46;;;;;;;7.35;2.90;;;23.50;48.00;;;;;;6153777;28;81752;-66
2021/11/24 09:42:47;;;;;;;4.97;2.80;;;23.50;48.00;;;;;;6154498;28;80385;-66
2021/11/24 09:45:48;;;;;;;8.07;2.55;;;23.50;48.30;;;;;;6147920;28;80619;-62
2021/11/24 09:48:49;;;;;;;5.15;2.47;;;23.50;48.40;;;;;;6158637;28;81966;-62
2021/11/24 09:51:49;;;;;;;6.68;2.03;;;23.50;48.80;;;;;;6155613;28;81187;-62
2021/11/24 09:54:50;;;;;;;10.07;3.35;;;23.40;48.10;;;;;;6157092;28;81039;-63
2021/11/24 09:57:50;;;;;;;3.58;2.90;;;23.40;47.00;;;;;;6156332;28;80560;-64
2021/11/24 10:00:51;;;;;;;4.30;3.20;;;23.10;42.50;;;;;;6146380;28;80408;-63
2021/11/24 10:03:51;;;;;;;4.65;3.30;;;22.90;41.30;;;;;;6147237;28;80251;-61
2021/11/24 10:06:52;;;;;;;17.17;9.82;;;22.80;40.10;;;;;;6149499;28;81049;-62
2021/11/24 10:09:52;;;;;;;27.35;14.32;;;22.60;40.10;;;;;;6147851;28;83573;-61
2021/11/24 10:12:53;;;;;;;40.20;18.20;;;22.50;39.90;;;;;;6141370;28;82799;-61
2021/11/24 10:15:56;;;;;;;46.05;23.08;;;22.40;39.90;;;;;;6144169;28;83805;-61
2021/11/24 10:18:57;;;;;;;62.75;28.55;;;22.30;39.70;;;;;;6137200;28;83497;-61
2021/11/24 10:21:57;;;;;;;59.95;29.02;;;22.30;40.00;;;;;;6139888;28;84009;-61
2021/11/24 10:24:58;;;;;;;45.72;25.42;;;22.40;41.40;;;;;;6145757;28;85367;-62
2021/11/24 10:27:58;;;;;;;45.47;21.77;;;22.50;43.00;;;;;;6138714;28;85074;-61
2021/11/24 10:30:59;;;;;;;45.85;21.33;;;22.60;43.60;;;;;;6142846;28;82852;-62
2021/11/24 10:34:00;;;;;;;42.20;19.33;;;22.70;43.80;;;;;;6141852;28;83905;-63
2021/11/24 10:37:02;;;;;;;29.08;13.85;;;22.80;44.40;;;;;;6149984;28;83351;-62
2021/11/24 10:40:02;;;;;;;26.25;11.65;;;22.90;44.90;;;;;;6153626;28;83047;-62
2021/11/24 10:43:03;;;;;;;25.23;11.50;;;23.00;45.10;;;;;;6143569;28;84186;-63
2021/11/24 10:46:03;;;;;;;21.42;10.00;;;23.00;45.40;;;;;;6137479;28;83044;-63
2021/11/24 10:49:04;;;;;;;16.10;9.10;;;23.10;45.40;;;;;;6148650;28;83024;-63
2021/11/24 10:52:04;;;;;;;16.00;8.02;;;23.10;45.40;;;;;;6147207;28;82871;-63
2021/11/24 10:55:05;;;;;;;12.20;6.32;;;23.20;45.90;;;;;;6151792;28;80536;-67
2021/11/24 10:58:05;;;;;;;15.60;6.15;;;23.20;46.70;;;;;;6145871;28;81769;-63
2021/11/24 11:01:06;;;;;;;8.90;5.22;;;23.20;46.70;;;;;;6143222;28;80270;-62
2021/11/24 11:04:09;;;;;;;12.68;4.85;;;23.30;46.40;;;;;;6142817;28;81285;-65
2021/11/24 11:07:10;;;;;;;6.93;3.75;;;23.30;46.50;;;;;;6150759;28;81785;-67
2021/11/24 11:10:11;;;;;;;6.75;3.80;;;23.30;46.90;;;;;;6142326;28;81648;-65
2021/11/24 11:13:11;;;;;;;5.45;3.40;;;23.40;47.40;;;;;;6146284;28;81977;-63
2021/11/24 11:16:12;;;;;;;6.63;3.10;;;23.30;47.20;;;;;;6137188;28;81412;-63
2021/11/24 11:19:12;;;;;;;5.03;2.95;;;23.40;47.20;;;;;;6137043;28;80476;-63
2021/11/24 11:22:13;;;;;;;5.93;2.70;;;23.40;47.40;;;;;;6153503;28;81118;-63
2021/11/24 11:25:13;;;;;;;5.72;3.47;;;23.40;47.80;;;;;;6151349;28;80599;-63
2021/11/24 11:28:14;;;;;;;7.95;2.33;;;23.50;47.60;;;;;;6152679;28;80608;-63
2021/11/24 11:31:15;;;;;;;7.93;3.35;;;23.50;47.60;;;;;;6138764;28;80830;-62
2021/11/24 11:34:15;;;;;;;3.15;2.30;;;23.40;47.40;;;;;;6143941;28;81119;-62
2021/11/24 11:37:16;;;;;;;3.20;2.05;;;23.50;47.80;;;;;;6147940;28;80913;-67
2021/11/24 11:40:16;;;;;;;4.22;2.08;;;23.40;47.80;;;;;;6148002;28;80697;-64
2021/11/24 11:43:17;;;;;;;2.78;1.92;;;23.50;48.40;;;;;;6151213;28;81072;-63
2021/11/24 11:46:17;;;;;;;4.13;2.45;;;23.50;48.50;;;;;;6153026;28;80517;-63
2021/11/24 11:49:18;;;;;;;2.72;2.10;;;23.50;48.60;;;;;;6152900;28;82360;-63
2021/11/24 11:52:18;;;;;;;3.83;1.83;;;23.50;48.70;;;;;;6149800;28;81422;-63
2021/11/24 11:55:19;;;;;;;4.78;2.03;;;23.50;48.90;;;;;;6150756;28;81682;-63
2021/11/24 11:58:19;;;;;;;2.47;2.00;;;23.50;48.80;;;;;;6146290;28;81156;-63
2021/11/24 12:01:22;;;;;;;2.35;1.80;;;23.50;48.80;;;;;;6147637;28;80841;-63
2021/11/24 12:04:26;;;;;;;2.78;1.77;;;23.50;48.50;;;;;;6151499;28;80804;-63
2021/11/24 12:07:26;;;;;;;4.22;1.88;;;23.50;48.30;;;;;;6149692;28;81329;-64
2021/11/24 12:10:27;;;;;;;2.42;1.70;;;23.50;48.20;;;;;;6151091;28;81075;-63
2021/11/24 12:13:27;;;;;;;3.05;1.75;;;23.60;48.40;;;;;;6150507;28;81965;-62
2021/11/24 12:16:28;;;;;;;3.72;1.70;;;23.60;48.20;;;;;;6151512;28;80431;-67
2021/11/24 12:19:28;;;;;;;3.35;1.60;;;23.60;48.10;;;;;;6150528;28;81006;-67
2021/11/24 12:22:29;;;;;;;2.95;1.60;;;23.60;48.50;;;;;;6151598;28;81555;-65
2021/11/24 12:25:30;;;;;;;1.55;1.23;;;23.60;48.40;;;;;;6146738;28;80515;-68
2021/11/24 12:28:31;;;;;;;3.45;1.65;;;23.60;49.10;;;;;;6146894;28;82109;-68
2021/11/24 12:31:31;;;;;;;1.75;1.42;;;23.60;49.40;;;;;;6152393;28;81818;-63
2021/11/24 12:34:32;;;;;;;2.83;1.60;;;23.60;49.60;;;;;;6150904;28;81434;-63
2021/11/24 12:37:32;;;;;;;1.95;1.45;;;23.60;50.80;;;;;;6150723;28;80302;-62
2021/11/24 12:40:33;;;;;;;1.42;1.33;;;23.60;51.00;;;;;;6150413;28;81635;-62
2021/11/24 12:43:33;;;;;;;2.75;1.65;;;23.60;51.10;;;;;;6150681;28;80725;-63
2021/11/24 12:46:36;;;;;;;2.03;1.55;;;23.60;51.60;;;;;;6152818;28;80515;-63
2021/11/24 12:49:38;;;;;;;3.42;1.90;;;23.60;51.40;;;;;;6146548;28;80571;-64
2021/11/24 12:52:39;;;;;;;2.13;1.50;;;23.60;51.40;;;;;;6151266;28;83027;-64
2021/11/24 12:55:40;;;;;;;2.58;1.75;;;23.60;51.50;;;;;;6150183;28;80980;-62
2021/11/24 12:58:40;;;;;;;1.77;1.60;;;23.60;51.10;;;;;;6148487;28;80902;-63
2021/11/24 13:01:41;;;;;;;4.25;1.92;;;23.60;50.90;;;;;;6155222;28;80659;-62
2021/11/24 13:04:41;;;;;;;8.80;1.73;;;23.60;51.50;;;;;;6150346;28;80404;-63
2021/11/24 13:07:42;;;;;;;6.07;2.10;;;23.60;51.40;;;;;;6153295;28;80849;-64
2021/11/24 13:10:42;;;;;;;3.65;1.70;;;23.60;51.50;;;;;;6154412;28;81764;-62
2021/11/24 13:13:43;;;;;;;1.75;1.35;;;23.60;51.40;;;;;;6155647;28;80768;-62
2021/11/24 13:16:43;;;;;;;4.13;2.17;;;23.60;50.60;;;;;;6156876;28;80752;-63
2021/11/24 13:19:44;;;;;;;9.23;3.47;;;23.60;51.30;;;;;;6142287;28;81952;-62
2021/11/24 13:22:45;;;;;;;14.10;5.03;;;23.60;50.60;;;;;;6143355;28;82640;-65
2021/11/24 13:25:45;;;;;;;18.67;6.47;;;23.60;51.90;;;;;;6148973;28;81231;-62
2021/11/24 13:28:46;;;;;;;21.27;6.47;;;23.60;51.80;;;;;;6150704;28;80683;-62
2021/11/24 13:31:46;;;;;;;14.55;5.55;;;23.50;51.80;;;;;;6145529;28;80384;-62
2021/11/24 13:34:47;;;;;;;14.30;5.20;;;23.50;51.70;;;;;;6139429;28;80877;-62
2021/11/24 13:37:47;;;;;;;10.23;5.18;;;23.50;51.30;;;;;;6149354;28;81466;-63
2021/11/24 13:40:48;;;;;;;11.38;4.55;;;23.50;51.20;;;;;;6145381;28;81680;-64
2021/11/24 13:43:48;;;;;;;10.20;4.35;;;23.50;51.00;;;;;;6151438;28;81057;-64
2021/11/24 13:46:49;;;;;;;16.33;4.85;;;23.40;50.00;;;;;;6145103;28;81251;-64
2021/11/24 13:49:51;;;;;;;14.70;4.65;;;23.40;50.00;;;;;;6146074;28;80911;-64
2021/11/24 13:52:51;;;;;;;9.02;3.75;;;23.40;49.90;;;;;;6145191;28;81353;-62
2021/11/24 13:55:52;;;;;;;11.70;4.18;;;23.40;49.90;;;;;;6152711;28;81721;-63
2021/11/24 13:58:53;;;;;;;7.30;3.75;;;23.40;50.00;;;;;;6155136;28;80504;-62
2021/11/24 14:01:54;;;;;;;47.45;23.77;;;23.40;50.10;;;;;;6149591;28;80878;-63
2021/11/24 14:04:55;;;;;;;106.90;53.25;;;23.40;50.40;;;;;;6147113;28;82949;-63
2021/11/24 14:07:55;;;;;;;186.93;96.90;;;23.40;50.70;;;;;;6139769;28;84282;-62
2021/11/24 14:10:56;;;;;;;239.85;121.80;;;23.40;50.60;;;;;;6147981;28;83654;-62
2021/11/24 14:13:56;;;;;;;363.25;175.10;;;23.20;50.60;;;;;;6132569;28;85287;-62
2021/11/24 14:16:57;;;;;;;254.65;120.53;;;23.20;50.40;;;;;;6142466;28;85620;-63
2021/11/24 14:19:57;;;;;;;196.73;92.82;;;23.10;50.90;;;;;;6148136;28;85515;-63
2021/11/24 14:22:58;;;;;;;149.75;73.80;;;23.20;50.50;;;;;;6150249;28;84530;-64
2021/11/24 14:25:59;;;;;;;129.95;62.78;;;23.30;50.50;;;;;;6145970;28;83777;-62
2021/11/24 14:29:00;;;;;;;108.93;50.00;;;23.30;50.00;;;;;;6152293;28;84503;-63
2021/11/24 14:32:00;;;;;;;91.47;43.72;;;23.30;49.20;;;;;;6149420;28;84633;-64
2021/11/24 14:35:01;;;;;;;73.72;36.83;;;23.40;49.50;;;;;;6145335;28;83956;-64
2021/11/24 14:38:01;;;;;;;67.93;32.15;;;23.40;49.00;;;;;;6149078;28;83046;-64
2021/11/24 14:41:02;;;;;;;59.45;28.10;;;23.40;48.50;;;;;;6145956;28;86438;-64
2021/11/24 14:44:02;;;;;;;58.70;27.10;;;23.40;48.20;;;;;;6146348;28;82961;-66
2021/11/24 14:47:03;;;;;;;48.08;24.42;;;23.40;48.20;;;;;;6137093;28;84201;-62
2021/11/24 14:50:03;;;;;;;43.10;20.77;;;23.30;48.00;;;;;;6149038;28;84644;-64
2021/11/24 14:53:04;;;;;;;43.05;19.42;;;23.40;47.90;;;;;;6147282;28;83602;-63
2021/11/24 14:56:05;;;;;;;38.42;17.35;;;23.40;47.70;;;;;;6143981;28;83621;-63
2021/11/24 14:59:06;;;;;;;32.30;15.65;;;23.40;47.40;;;;;;6142853;28;83300;-64
2021/11/24 15:02:06;;;;;;;30.83;14.05;;;23.40;48.00;;;;;;6141339;28;82956;-61
2021/11/24 15:05:07;;;;;;;24.52;12.90;;;23.30;47.20;;;;;;6138199;28;82787;-62
2021/11/24 15:08:07;;;;;;;24.30;12.52;;;23.30;47.00;;;;;;6142619;28;83331;-62
2021/11/24 15:11:08;;;;;;;22.58;10.63;;;23.30;47.00;;;;;;6140692;28;83171;-62
2021/11/24 15:14:08;;;;;;;21.58;10.50;;;23.30;46.80;;;;;;6147621;28;83410;-62
2021/11/24 15:17:09;;;;;;;17.83;9.52;;;23.30;47.50;;;;;;6142617;28;83636;-62
2021/11/24 15:20:09;;;;;;;18.73;9.85;;;23.30;47.20;;;;;;6155158;28;82775;-63
2021/11/24 15:23:10;;;;;;;17.27;8.93;;;23.30;47.70;;;;;;6151419;28;87134;-61
2021/11/24 15:26:11;;;;;;;16.55;8.15;;;23.30;47.10;;;;;;6155238;28;80479;-63
2021/11/24 15:29:11;;;;;;;12.20;6.28;;;23.30;46.50;;;;;;6141808;28;81383;-62
2021/11/24 15:32:12;;;;;;;15.18;7.82;;;23.40;46.10;;;;;;6147995;28;81346;-63
2021/11/24 15:35:13;;;;;;;11.05;6.45;;;23.40;45.70;;;;;;6137821;28;80493;-62
2021/11/24 15:38:13;;;;;;;13.52;5.82;;;23.40;45.40;;;;;;6142653;28;80585;-63